createdAt,value
2023-02-19T00:02:06.246Z,13.83
2023-02-19T00:04:35.127Z,14.40
2023-02-19T00:07:04.922Z,14.30
2023-02-19T00:09:33.373Z,13.90
2023-02-19T00:12:01.902Z,13.90
2023-02-19T00:14:30.811Z,14.40
2023-02-19T00:16:59.823Z,14.93
2023-02-19T00:19:29.624Z,14.23
2023-02-19T00:21:58.203Z,14.10
2023-02-19T00:24:27.993Z,14.77
2023-02-19T00:26:56.550Z,14.73
2023-02-19T00:29:25.312Z,14.63
2023-02-19T00:31:53.908Z,14.40
2023-02-19T00:34:22.514Z,14.23
2023-02-19T00:36:52.822Z,13.30
2023-02-19T00:39:21.532Z,15.23
2023-02-19T00:41:51.321Z,14.03
2023-02-19T00:44:19.728Z,14.07
2023-02-19T00:46:50.207Z,17.00
2023-02-19T00:49:21.029Z,15.37
2023-02-19T00:51:49.721Z,14.73
2023-02-19T00:54:18.269Z,13.80
2023-02-19T00:56:52.284Z,14.40
2023-02-19T00:59:20.614Z,14.07
2023-02-19T01:01:49.754Z,14.33
2023-02-19T01:04:18.800Z,13.83
2023-02-19T01:06:48.960Z,14.13
2023-02-19T01:09:17.377Z,14.73
2023-02-19T01:11:46.014Z,14.47
2023-02-19T01:14:15.759Z,14.07
2023-02-19T01:16:44.761Z,14.97
2023-02-19T01:19:13.399Z,14.67
2023-02-19T01:21:41.814Z,15.03
2023-02-19T01:24:11.130Z,14.23
2023-02-19T01:26:40.464Z,13.90
2023-02-19T01:29:09.017Z,14.57
2023-02-19T01:31:41.057Z,13.83
2023-02-19T01:34:11.663Z,13.90
2023-02-19T01:36:40.681Z,15.00
2023-02-19T01:39:09.521Z,14.87
2023-02-19T01:41:39.703Z,14.07
2023-02-19T01:44:11.468Z,14.83
2023-02-19T01:46:42.316Z,14.20
2023-02-19T01:49:15.192Z,15.03
2023-02-19T01:51:47.576Z,13.27
2023-02-19T01:54:17.679Z,15.10
2023-02-19T01:56:47.011Z,15.80
2023-02-19T01:59:15.881Z,15.30
2023-02-19T02:01:47.153Z,15.87
2023-02-19T02:04:16.277Z,16.30
2023-02-19T02:06:48.031Z,13.80
2023-02-19T02:09:35.798Z,15.53
2023-02-19T02:12:04.303Z,15.13
2023-02-19T02:14:36.433Z,14.60
2023-02-19T02:17:13.053Z,14.43
2023-02-19T02:20:03.307Z,17.40
2023-02-19T02:22:36.527Z,15.30
2023-02-19T02:25:22.081Z,14.50
2023-02-19T02:27:56.774Z,15.20
2023-02-19T02:30:43.324Z,14.27
2023-02-19T02:33:18.745Z,15.30
2023-02-19T02:35:50.511Z,14.70
2023-02-19T02:38:23.025Z,14.17
2023-02-19T02:40:51.833Z,15.00
2023-02-19T02:43:20.330Z,16.13
2023-02-19T02:45:50.320Z,14.77
2023-02-19T02:48:30.057Z,14.10
2023-02-19T02:51:02.135Z,14.60
2023-02-19T02:54:09.385Z,14.77
2023-02-19T02:56:37.953Z,14.43
2023-02-19T02:59:09.106Z,14.40
2023-02-19T03:01:59.395Z,14.70
2023-02-19T03:04:34.257Z,16.90
2023-02-19T03:07:07.422Z,16.10
2023-02-19T03:09:40.708Z,15.40
2023-02-19T03:12:31.746Z,15.93
2023-02-19T03:15:21.298Z,15.53
2023-02-19T03:18:13.931Z,16.43
2023-02-19T03:20:45.716Z,15.23
2023-02-19T03:23:16.804Z,15.30
2023-02-19T03:26:02.818Z,15.70
2023-02-19T03:29:04.505Z,15.97
2023-02-19T03:31:34.369Z,14.90
2023-02-19T03:34:09.697Z,13.07
2023-02-19T03:36:43.653Z,15.77
2023-02-19T03:39:14.370Z,16.17
2023-02-19T03:41:49.348Z,15.63
2023-02-19T03:44:20.599Z,16.33
2023-02-19T03:46:55.170Z,17.20
2023-02-19T03:49:29.070Z,16.00
2023-02-19T03:52:03.580Z,14.63
2023-02-19T03:54:36.530Z,15.90
2023-02-19T03:57:08.406Z,16.30
2023-02-19T03:59:40.028Z,15.33
2023-02-19T04:02:11.363Z,16.13
2023-02-19T04:04:45.720Z,15.67
2023-02-19T04:07:14.417Z,16.43
2023-02-19T04:09:46.720Z,15.33
2023-02-19T04:12:19.124Z,15.70
2023-02-19T04:14:53.837Z,15.87
2023-02-19T04:17:26.250Z,16.50
2023-02-19T04:19:56.324Z,15.20
2023-02-19T04:22:24.699Z,16.10
2023-02-19T04:24:55.536Z,16.30
2023-02-19T04:27:23.864Z,16.00
2023-02-19T04:29:52.070Z,14.80
2023-02-19T04:32:20.738Z,15.30
2023-02-19T04:34:49.002Z,15.43
2023-02-19T04:37:18.514Z,16.00
2023-02-19T04:39:46.988Z,15.67
2023-02-19T04:42:15.254Z,15.37
2023-02-19T04:44:43.718Z,17.00
2023-02-19T04:47:12.165Z,17.07
2023-02-19T04:49:40.461Z,14.93
2023-02-19T04:52:08.806Z,17.33
2023-02-19T04:54:38.811Z,14.80
2023-02-19T04:57:07.105Z,16.47
2023-02-19T04:59:35.445Z,16.23
2023-02-19T05:02:04.152Z,16.33
2023-02-19T05:04:32.796Z,16.10
2023-02-19T05:07:01.204Z,15.53
2023-02-19T05:09:30.015Z,16.60
2023-02-19T05:11:59.765Z,16.40
2023-02-19T05:14:27.996Z,15.93
2023-02-19T05:16:56.283Z,16.50
2023-02-19T05:19:24.601Z,17.83
2023-02-19T05:21:52.867Z,17.17
2023-02-19T05:24:21.137Z,16.50
2023-02-19T05:26:49.407Z,16.13
2023-02-19T05:29:19.048Z,18.23
2023-02-19T05:31:47.459Z,16.20
2023-02-19T05:34:15.904Z,15.90
2023-02-19T05:36:44.157Z,15.77
2023-02-19T05:39:13.208Z,16.20
2023-02-19T05:41:41.513Z,15.90
2023-02-19T05:44:11.567Z,16.33
2023-02-19T05:46:41.600Z,17.20
2023-02-19T05:49:09.887Z,19.03
2023-02-19T05:51:38.183Z,16.63
2023-02-19T05:54:06.884Z,17.90
2023-02-19T05:56:36.536Z,17.47
2023-02-19T05:59:07.941Z,17.67
2023-02-19T06:01:37.042Z,16.43
2023-02-19T06:04:06.873Z,16.90
2023-02-19T06:06:35.296Z,17.77
2023-02-19T06:09:03.710Z,17.43
2023-02-19T06:11:32.249Z,15.40
2023-02-19T06:14:00.650Z,17.10
2023-02-19T06:16:29.364Z,18.67
2023-02-19T06:18:57.891Z,17.77
2023-02-19T06:21:27.622Z,16.00
2023-02-19T06:23:55.977Z,16.23
2023-02-19T06:26:25.767Z,17.50
2023-02-19T06:28:55.017Z,16.00
2023-02-19T06:31:23.991Z,17.83
2023-02-19T06:33:52.442Z,18.23
2023-02-19T06:36:21.930Z,16.43
2023-02-19T06:38:52.644Z,18.83
2023-02-19T06:41:21.022Z,16.63
2023-02-19T06:43:49.594Z,17.70
2023-02-19T06:46:18.015Z,17.03
2023-02-19T06:48:46.886Z,16.40
2023-02-19T06:51:18.807Z,17.73
2023-02-19T06:53:48.278Z,19.27
2023-02-19T06:56:27.114Z,17.60
2023-02-19T06:58:57.713Z,17.43
2023-02-19T07:01:26.508Z,18.00
2023-02-19T07:03:54.869Z,15.87
2023-02-19T07:06:24.659Z,16.67
2023-02-19T07:08:53.685Z,17.33
2023-02-19T07:11:22.124Z,16.80
2023-02-19T07:13:55.882Z,16.60
2023-02-19T07:16:24.782Z,17.37
2023-02-19T07:18:53.476Z,16.10
2023-02-19T07:21:21.792Z,16.23
2023-02-19T07:23:50.110Z,16.70
2023-02-19T07:26:19.918Z,17.10
2023-02-19T07:28:49.622Z,16.30
2023-02-19T07:31:20.875Z,16.70
2023-02-19T07:33:49.459Z,16.87
2023-02-19T07:36:19.118Z,18.13
2023-02-19T07:38:47.933Z,16.27
2023-02-19T07:41:16.323Z,16.30
2023-02-19T07:43:44.832Z,18.00
2023-02-19T07:46:14.827Z,17.50
2023-02-19T07:48:45.530Z,16.33
2023-02-19T07:51:16.593Z,16.27
2023-02-19T07:53:45.017Z,17.13
2023-02-19T07:56:14.035Z,19.10
2023-02-19T07:58:42.512Z,16.10
2023-02-19T08:01:12.482Z,16.70
2023-02-19T08:03:40.391Z,18.17
2023-02-19T08:06:11.660Z,16.43
2023-02-19T08:08:40.493Z,17.90
2023-02-19T08:11:26.807Z,16.30
2023-02-19T08:13:55.633Z,16.70
2023-02-19T08:16:40.636Z,17.83
2023-02-19T08:19:10.958Z,16.67
2023-02-19T08:21:40.929Z,17.97
2023-02-19T08:24:09.359Z,16.00
2023-02-19T08:26:38.219Z,17.07
2023-02-19T08:29:07.016Z,17.00
2023-02-19T08:31:36.392Z,16.90
2023-02-19T08:34:04.875Z,16.60
2023-02-19T08:36:33.269Z,16.57
2023-02-19T08:39:03.012Z,17.37
2023-02-19T08:41:31.694Z,17.33
2023-02-19T08:44:00.116Z,15.43
2023-02-19T08:46:28.448Z,17.53
2023-02-19T08:48:56.730Z,17.17
2023-02-19T08:51:25.072Z,16.60
2023-02-19T08:53:53.378Z,16.80
2023-02-19T08:56:23.175Z,17.40
2023-02-19T08:58:51.606Z,18.23
2023-02-19T09:01:20.086Z,16.17
2023-02-19T09:03:48.622Z,15.90
2023-02-19T09:06:19.379Z,15.80
2023-02-19T09:08:48.438Z,15.17
2023-02-19T09:11:16.836Z,16.40
2023-02-19T09:13:46.586Z,16.70
2023-02-19T09:16:15.078Z,15.63
2023-02-19T09:18:45.967Z,16.10
2023-02-19T09:21:14.404Z,15.80
2023-02-19T09:23:42.851Z,15.97
2023-02-19T09:26:11.611Z,17.63
2023-02-19T09:28:41.976Z,16.87
2023-02-19T09:31:14.002Z,15.30
2023-02-19T09:33:45.879Z,14.37
2023-02-19T09:36:15.180Z,14.80
2023-02-19T09:38:43.617Z,16.07
2023-02-19T09:41:18.649Z,15.40
2023-02-19T09:43:47.493Z,15.43
2023-02-19T09:46:25.922Z,14.00
2023-02-19T09:48:54.941Z,14.40
2023-02-19T09:51:23.603Z,15.03
2023-02-19T09:53:52.413Z,15.53
2023-02-19T09:56:20.794Z,16.43
2023-02-19T09:58:50.259Z,15.13
2023-02-19T10:01:20.556Z,15.13
2023-02-19T10:03:49.959Z,15.77
2023-02-19T10:06:21.872Z,13.90
2023-02-19T10:08:51.474Z,16.87
2023-02-19T10:11:20.350Z,14.67
2023-02-19T10:13:51.299Z,15.47
2023-02-19T10:16:24.125Z,13.50
2023-02-19T10:18:52.575Z,14.90
2023-02-19T10:21:23.401Z,15.37
2023-02-19T10:23:55.382Z,15.90
2023-02-19T10:26:23.945Z,14.83
2023-02-19T10:28:54.222Z,16.27
2023-02-19T10:31:26.937Z,14.93
2023-02-19T10:33:57.159Z,15.63
2023-02-19T10:36:32.184Z,14.70
2023-02-19T10:39:02.148Z,14.40
2023-02-19T10:41:31.292Z,14.03
2023-02-19T10:44:15.628Z,16.50
2023-02-19T10:46:47.182Z,14.30
2023-02-19T10:49:23.935Z,13.10
2023-02-19T10:51:53.805Z,15.93
2023-02-19T10:54:26.675Z,15.20
2023-02-19T10:56:55.272Z,14.80
2023-02-19T10:59:25.986Z,15.30
2023-02-19T11:02:00.982Z,16.07
2023-02-19T11:04:34.120Z,14.77
2023-02-19T11:07:10.510Z,14.20
2023-02-19T11:09:40.396Z,14.70
2023-02-19T11:12:09.668Z,15.67
2023-02-19T11:14:38.074Z,14.67
2023-02-19T11:17:07.826Z,15.47
2023-02-19T11:19:39.027Z,14.77
2023-02-19T11:22:21.050Z,15.67
2023-02-19T11:24:51.783Z,14.70
2023-02-19T11:27:22.733Z,16.57
2023-02-19T11:29:51.151Z,16.23
2023-02-19T11:32:29.395Z,14.10
2023-02-19T11:35:19.621Z,14.30
2023-02-19T11:37:59.152Z,16.70
2023-02-19T11:40:37.508Z,16.00
2023-02-19T11:43:14.139Z,15.33
2023-02-19T11:45:48.393Z,16.50
2023-02-19T11:48:31.842Z,14.60
2023-02-19T11:51:11.572Z,14.07
2023-02-19T11:53:44.217Z,13.50
2023-02-19T11:56:17.293Z,15.47
2023-02-19T11:58:55.916Z,16.00
2023-02-19T12:01:32.134Z,15.20
2023-02-19T12:04:28.353Z,15.10
2023-02-19T12:07:04.490Z,12.37
2023-02-19T12:09:41.344Z,13.90
2023-02-19T12:12:18.723Z,15.40
2023-02-19T12:15:08.737Z,15.07
2023-02-19T12:18:04.247Z,15.87
2023-02-19T12:20:39.112Z,14.40
2023-02-19T12:23:30.283Z,16.23
2023-02-19T12:26:02.969Z,13.80
2023-02-19T12:28:47.738Z,16.57
2023-02-19T12:31:41.314Z,14.53
2023-02-19T12:34:24.065Z,15.30
2023-02-19T12:37:03.817Z,15.20
2023-02-19T12:39:40.690Z,14.93
2023-02-19T12:42:12.946Z,13.70
2023-02-19T12:44:44.080Z,13.93
2023-02-19T12:47:18.920Z,15.57
2023-02-19T12:49:49.639Z,14.20
2023-02-19T12:52:21.813Z,14.90
2023-02-19T12:54:54.824Z,13.30
2023-02-19T12:57:26.981Z,15.10
2023-02-19T13:00:00.259Z,16.37
2023-02-19T13:02:35.011Z,13.97
2023-02-19T13:05:06.933Z,14.40
2023-02-19T13:07:39.906Z,14.50
2023-02-19T13:10:26.481Z,14.60
2023-02-19T13:12:56.373Z,13.57
2023-02-19T13:15:31.020Z,14.00
2023-02-19T13:18:01.640Z,15.70
2023-02-19T13:20:33.141Z,13.97
2023-02-19T13:23:26.393Z,13.77
2023-02-19T13:26:19.098Z,14.10
2023-02-19T13:28:59.607Z,14.20
2023-02-19T13:31:49.854Z,13.50
2023-02-19T13:34:26.996Z,14.70
2023-02-19T13:36:55.761Z,14.73
2023-02-19T13:39:25.344Z,13.70
2023-02-19T13:41:55.887Z,16.07
2023-02-19T13:44:26.805Z,14.57
2023-02-19T13:46:55.375Z,14.60
2023-02-19T13:49:43.150Z,14.27
2023-02-19T13:52:39.132Z,15.00
2023-02-19T13:55:48.649Z,14.53
2023-02-19T13:58:36.457Z,14.93
2023-02-19T14:01:07.110Z,16.10
2023-02-19T14:03:47.908Z,20.00
2023-02-19T14:06:16.200Z,15.93
2023-02-19T14:08:52.623Z,17.33
2023-02-19T14:12:00.725Z,14.03
2023-02-19T14:14:30.116Z,15.37
2023-02-19T14:17:07.671Z,15.57
2023-02-19T14:19:52.173Z,15.03
2023-02-19T14:22:51.384Z,14.07
2023-02-19T14:25:28.602Z,14.47
2023-02-19T14:28:02.416Z,16.87
2023-02-19T14:30:31.679Z,14.13
2023-02-19T14:33:10.279Z,15.67
2023-02-19T14:35:42.438Z,13.83
2023-02-19T14:38:17.885Z,13.83
2023-02-19T14:40:47.364Z,13.50
2023-02-19T14:43:19.434Z,14.00
2023-02-19T14:45:50.184Z,14.60
2023-02-19T14:48:21.606Z,12.87
2023-02-19T14:50:52.069Z,14.37
2023-02-19T14:53:21.998Z,14.20
2023-02-19T14:55:51.207Z,14.07
2023-02-19T14:58:23.997Z,15.57
2023-02-19T15:00:52.340Z,14.53
2023-02-19T15:03:38.570Z,14.27
2023-02-19T15:06:08.950Z,14.70
2023-02-19T15:08:39.571Z,16.37
2023-02-19T15:11:11.698Z,13.97
2023-02-19T15:13:45.678Z,16.00
2023-02-19T15:16:25.931Z,14.60
2023-02-19T15:18:54.875Z,12.27
2023-02-19T15:21:25.636Z,14.83
2023-02-19T15:23:56.073Z,13.50
2023-02-19T15:26:26.943Z,13.77
2023-02-19T15:29:01.138Z,14.97
2023-02-19T15:31:29.712Z,10.67
2023-02-19T15:34:24.273Z,13.93
2023-02-19T15:36:56.513Z,14.07
2023-02-19T15:39:26.416Z,13.83
2023-02-19T15:41:59.921Z,13.53
2023-02-19T15:45:17.199Z,14.63
2023-02-19T15:47:47.266Z,14.20
2023-02-19T15:50:17.310Z,14.10
2023-02-19T15:52:49.011Z,14.40
2023-02-19T15:55:25.618Z,13.93
2023-02-19T15:57:56.708Z,14.37
2023-02-19T16:00:32.333Z,12.37
2023-02-19T16:03:00.858Z,12.73
2023-02-19T16:05:30.833Z,14.13
2023-02-19T16:08:20.907Z,14.23
2023-02-19T16:10:56.792Z,14.80
2023-02-19T16:13:26.423Z,14.60
2023-02-19T16:16:00.647Z,14.43
2023-02-19T16:18:29.249Z,14.87
2023-02-19T16:20:57.635Z,14.90
2023-02-19T16:23:27.489Z,14.23
2023-02-19T16:26:00.284Z,14.20
2023-02-19T16:28:29.733Z,13.93
2023-02-19T16:31:00.786Z,14.30
2023-02-19T16:33:41.388Z,13.50
2023-02-19T16:36:37.345Z,15.03
2023-02-19T16:39:17.032Z,15.70
2023-02-19T16:42:15.574Z,16.43
2023-02-19T16:44:48.197Z,15.83
2023-02-19T16:47:26.522Z,16.10
2023-02-19T16:49:55.697Z,15.83
2023-02-19T16:52:24.032Z,15.43
2023-02-19T16:54:52.364Z,15.30
2023-02-19T16:57:21.677Z,15.10
2023-02-19T16:59:50.589Z,15.10
2023-02-19T17:02:22.758Z,15.10
2023-02-19T17:04:55.116Z,15.93
2023-02-19T17:07:23.704Z,15.50
2023-02-19T17:09:52.036Z,15.30
2023-02-19T17:12:24.446Z,15.40
2023-02-19T17:14:52.890Z,15.40
2023-02-19T17:17:22.713Z,15.50
2023-02-19T17:19:51.012Z,15.70
2023-02-19T17:22:19.685Z,15.70
2023-02-19T17:24:48.416Z,16.20
2023-02-19T17:27:16.720Z,15.80
2023-02-19T17:29:45.055Z,16.03
2023-02-19T17:32:14.568Z,16.10
2023-02-19T17:34:44.793Z,15.53
2023-02-19T17:37:13.030Z,17.13
2023-02-19T17:39:41.668Z,15.47
2023-02-19T17:42:10.101Z,15.80
2023-02-19T17:44:38.475Z,15.90
2023-02-19T17:47:07.335Z,16.13
2023-02-19T17:49:36.451Z,15.00
2023-02-19T17:52:07.048Z,15.43
2023-02-19T17:54:35.464Z,15.53
2023-02-19T17:57:03.924Z,13.73
2023-02-19T17:59:32.344Z,15.90
2023-02-19T18:02:02.071Z,14.93
2023-02-19T18:04:30.375Z,16.57
2023-02-19T18:06:59.187Z,15.50
2023-02-19T18:09:28.887Z,15.97
2023-02-19T18:11:57.247Z,16.30
2023-02-19T18:14:25.546Z,15.43
2023-02-19T18:16:54.026Z,16.10
2023-02-19T18:19:23.032Z,15.90
2023-02-19T18:21:51.481Z,16.47
2023-02-19T18:24:20.390Z,15.87
2023-02-19T18:26:50.566Z,15.60
2023-02-19T18:29:19.990Z,16.47
2023-02-19T18:31:48.546Z,15.07
2023-02-19T18:34:18.309Z,15.97
2023-02-19T18:36:46.886Z,17.10
2023-02-19T18:39:15.594Z,15.40
2023-02-19T18:41:49.365Z,17.00
2023-02-19T18:44:20.180Z,15.73
2023-02-19T18:46:48.424Z,18.00
2023-02-19T18:49:17.034Z,16.00
2023-02-19T18:51:45.498Z,15.53
2023-02-19T18:54:13.966Z,15.57
2023-02-19T18:56:43.473Z,16.43
2023-02-19T18:59:13.636Z,15.67
2023-02-19T19:01:41.916Z,16.80
2023-02-19T19:04:10.277Z,16.70
2023-02-19T19:06:38.400Z,15.97
2023-02-19T19:09:07.140Z,15.70
2023-02-19T19:11:35.814Z,17.63
2023-02-19T19:14:04.095Z,16.87
2023-02-19T19:16:33.636Z,16.47
2023-02-19T19:19:01.895Z,15.43
2023-02-19T19:21:30.725Z,15.70
2023-02-19T19:23:59.016Z,15.53
2023-02-19T19:26:27.367Z,15.40
2023-02-19T19:28:55.480Z,15.93
2023-02-19T19:31:24.820Z,15.60
2023-02-19T19:33:54.440Z,17.00
2023-02-19T19:36:23.959Z,16.10
2023-02-19T19:38:52.536Z,15.90
2023-02-19T19:41:21.692Z,15.67
2023-02-19T19:43:49.992Z,17.03
2023-02-19T19:46:19.893Z,16.80
2023-02-19T19:48:48.674Z,16.37
2023-02-19T19:51:18.554Z,16.10
2023-02-19T19:53:48.414Z,16.50
2023-02-19T19:56:17.146Z,15.97
2023-02-19T19:58:45.529Z,16.20
2023-02-19T20:01:15.214Z,15.30
2023-02-19T20:03:43.459Z,16.67
2023-02-19T20:06:11.722Z,16.17
2023-02-19T20:08:42.127Z,16.30
2023-02-19T20:11:10.767Z,17.13
2023-02-19T20:13:39.902Z,15.33
2023-02-19T20:16:11.072Z,17.60
2023-02-19T20:18:39.569Z,17.63
2023-02-19T20:21:09.247Z,17.80
2023-02-19T20:23:39.194Z,16.37
2023-02-19T20:26:09.222Z,16.00
2023-02-19T20:28:37.845Z,16.63
2023-02-19T20:31:06.589Z,17.07
2023-02-19T20:33:35.135Z,16.30
2023-02-19T20:36:03.578Z,16.83
2023-02-19T20:38:32.050Z,17.50
2023-02-19T20:41:00.684Z,17.03
2023-02-19T20:43:30.398Z,17.70
2023-02-19T20:45:59.531Z,16.60
2023-02-19T20:48:27.811Z,16.60
2023-02-19T20:50:59.545Z,17.17
2023-02-19T20:53:28.346Z,16.40
2023-02-19T20:55:57.513Z,17.80
2023-02-19T20:58:26.676Z,16.40
2023-02-19T21:00:56.815Z,14.97
2023-02-19T21:03:26.134Z,16.63
2023-02-19T21:05:54.568Z,16.40
2023-02-19T21:08:22.928Z,16.33
2023-02-19T21:10:51.164Z,16.40
2023-02-19T21:13:23.596Z,17.20
2023-02-19T21:15:52.120Z,16.17
2023-02-19T21:18:21.966Z,17.23
2023-02-19T21:20:50.387Z,16.17
2023-02-19T21:23:18.791Z,16.33
2023-02-19T21:25:47.128Z,16.70
2023-02-19T21:28:15.573Z,16.23
2023-02-19T21:30:44.004Z,16.13
2023-02-19T21:33:12.408Z,15.70
2023-02-19T21:35:42.002Z,16.30
2023-02-19T21:38:12.141Z,16.30
2023-02-19T21:40:40.808Z,16.27
2023-02-19T21:43:09.308Z,16.57
2023-02-19T21:45:37.665Z,17.13
2023-02-19T21:48:06.668Z,16.50
2023-02-19T21:50:35.068Z,15.10
2023-02-19T21:53:05.653Z,16.63
2023-02-19T21:55:34.673Z,15.33
2023-02-19T21:58:03.185Z,19.43
2023-02-19T22:00:32.390Z,16.87
2023-02-19T22:03:01.139Z,18.30
2023-02-19T22:05:29.600Z,17.70
2023-02-19T22:07:59.229Z,16.80
2023-02-19T22:10:29.034Z,16.50
2023-02-19T22:12:57.335Z,15.93
2023-02-19T22:15:25.566Z,16.10
2023-02-19T22:17:53.907Z,16.70
2023-02-19T22:20:22.304Z,16.50
2023-02-19T22:22:50.729Z,17.93
2023-02-19T22:25:19.308Z,16.63
2023-02-19T22:27:50.704Z,17.57
2023-02-19T22:30:19.272Z,18.03
2023-02-19T22:32:47.560Z,17.70
2023-02-19T22:35:16.056Z,17.50
2023-02-19T22:37:44.369Z,16.20
2023-02-19T22:40:13.620Z,16.33
2023-02-19T22:42:42.048Z,15.60
2023-02-19T22:45:13.472Z,17.07
2023-02-19T22:47:42.198Z,17.20
2023-02-19T22:50:18.551Z,17.10
2023-02-19T22:52:46.980Z,17.40
2023-02-19T22:55:16.222Z,16.97
2023-02-19T22:57:44.529Z,16.93
2023-02-19T23:00:20.917Z,17.33
2023-02-19T23:02:49.269Z,17.13
2023-02-19T23:05:18.039Z,16.60
2023-02-19T23:07:46.580Z,16.53
2023-02-19T23:10:15.203Z,16.47
2023-02-19T23:12:43.649Z,16.97
2023-02-19T23:15:12.807Z,17.90
2023-02-19T23:17:42.659Z,17.07
2023-02-19T23:20:11.530Z,16.17
2023-02-19T23:22:40.060Z,17.10
2023-02-19T23:25:09.128Z,17.23
2023-02-19T23:27:37.381Z,17.17
2023-02-19T23:30:07.171Z,17.50
2023-02-19T23:32:35.526Z,16.77
2023-02-19T23:35:05.516Z,17.80
2023-02-19T23:37:33.760Z,16.67
2023-02-19T23:40:02.107Z,16.67
2023-02-19T23:42:31.523Z,16.90
2023-02-19T23:44:59.871Z,16.57
2023-02-19T23:47:30.654Z,17.57
2023-02-19T23:49:59.729Z,18.90
2023-02-19T23:52:29.491Z,17.90
2023-02-19T23:54:57.847Z,17.33
2023-02-19T23:57:26.127Z,17.00
2023-02-19T23:59:55.218Z,17.10
